Time;durP1;ratioP1;P1;durP2;ratioP2;P2;SDS_P1;SDS_P2;PMS_P1;PMS_P2;Temp;Humidity;BMP_temperature;BMP_pressure;BME280_temperature;BME280_humidity;BME280_pressure;Samples;Min_cycle;Max_cycle;Signal;HPM_P1;HPM_P2
2022/10/31 00:00:58;;;;;;;57.13;34.03;;;13.30;94.70;;;;;;5033758;28;20179;-88
2022/10/31 00:03:23;;;;;;;61.33;35.43;;;13.30;94.80;;;;;;5016100;28;20188;-88
2022/10/31 00:05:50;;;;;;;57.13;35.63;;;13.40;94.70;;;;;;5033757;28;20177;-88
2022/10/31 00:08:17;;;;;;;56.50;34.93;;;13.30;94.70;;;;;;5016153;28;20639;-88
2022/10/31 00:10:43;;;;;;;55.23;34.03;;;13.30;94.70;;;;;;5016212;28;20635;-88
2022/10/31 00:13:10;;;;;;;54.63;35.37;;;13.30;94.60;;;;;;5033447;28;20273;-89
2022/10/31 00:15:40;;;;;;;52.17;35.70;;;13.20;94.60;;;;;;5015869;28;20181;-88
2022/10/31 00:18:07;;;;;;;56.60;38.07;;;13.30;94.60;;;;;;5015868;28;20642;-88
2022/10/31 00:20:33;;;;;;;54.17;33.50;;;13.30;94.50;;;;;;5016858;28;20176;-89
2022/10/31 00:23:02;;;;;;;55.13;34.57;;;13.20;94.50;;;;;;5016202;28;20350;-89
2022/10/31 00:25:32;;;;;;;58.13;35.20;;;13.20;94.50;;;;;;5016008;28;20180;-88
2022/10/31 00:27:58;;;;;;;54.13;35.10;;;13.10;94.50;;;;;;5033653;28;20266;-88
2022/10/31 00:30:23;;;;;;;52.10;34.17;;;13.00;94.50;;;;;;5015891;28;20254;-89
2022/10/31 00:32:49;;;;;;;58.23;36.10;;;13.00;94.50;;;;;;5015623;28;20619;-88
2022/10/31 00:35:14;;;;;;;62.40;38.07;;;13.00;94.60;;;;;;5015893;28;20180;-88
2022/10/31 00:37:40;;;;;;;59.43;38.57;;;13.00;94.60;;;;;;5015367;28;20180;-88
2022/10/31 00:40:06;;;;;;;63.27;40.37;;;13.00;94.60;;;;;;5015704;28;20177;-88
2022/10/31 00:42:32;;;;;;;63.17;39.67;;;13.00;94.70;;;;;;5015699;28;20197;-88
2022/10/31 00:44:57;;;;;;;68.57;40.23;;;13.00;94.60;;;;;;5015807;28;20176;-89
2022/10/31 00:47:23;;;;;;;62.17;39.67;;;13.00;94.70;;;;;;5033347;28;20239;-88
2022/10/31 00:49:48;;;;;;;64.73;39.87;;;13.00;94.70;;;;;;5033285;28;20189;-88
2022/10/31 00:52:14;;;;;;;68.60;42.20;;;13.00;94.80;;;;;;5015521;28;20270;-88
2022/10/31 00:54:39;;;;;;;68.80;42.90;;;13.00;94.80;;;;;;5015456;28;20201;-88
2022/10/31 00:57:05;;;;;;;73.03;44.03;;;13.10;94.90;;;;;;5033508;28;20168;-88
2022/10/31 00:59:30;;;;;;;69.07;42.57;;;13.10;94.90;;;;;;5015894;28;20184;-88
2022/10/31 01:01:56;;;;;;;74.20;42.53;;;13.00;94.90;;;;;;5015437;28;20279;-88
2022/10/31 01:04:21;;;;;;;70.43;42.13;;;13.10;94.90;;;;;;5033390;28;20184;-88
2022/10/31 01:06:47;;;;;;;64.57;41.43;;;13.10;94.90;;;;;;5015437;28;20651;-88
2022/10/31 01:09:12;;;;;;;82.23;44.77;;;13.00;94.90;;;;;;5033094;28;20252;-88
2022/10/31 01:11:38;;;;;;;74.70;43.50;;;13.20;95.00;;;;;;5015332;28;20693;-88
2022/10/31 01:14:04;;;;;;;68.57;41.53;;;13.00;94.90;;;;;;5015748;28;20239;-88
2022/10/31 01:16:30;;;;;;;71.63;42.73;;;13.00;95.00;;;;;;5033000;28;20248;-88
2022/10/31 01:18:56;;;;;;;73.93;43.10;;;13.00;95.00;;;;;;5015349;28;20263;-88
2022/10/31 01:21:24;;;;;;;73.80;43.53;;;13.00;95.00;;;;;;5015243;28;20197;-88
2022/10/31 01:23:52;;;;;;;72.00;43.20;;;12.90;95.10;;;;;;5015475;28;20176;-88
2022/10/31 01:26:20;;;;;;;75.37;44.13;;;12.90;95.00;;;;;;5015502;28;20181;-88
2022/10/31 01:28:51;;;;;;;74.57;43.83;;;12.80;95.10;;;;;;5015462;28;20189;-88
2022/10/31 01:31:18;;;;;;;75.37;43.07;;;12.90;95.10;;;;;;5015261;28;20204;-88
2022/10/31 01:33:44;;;;;;;86.17;46.07;;;12.90;95.20;;;;;;5015586;28;20204;-88
2022/10/31 01:36:19;;;;;;;88.00;47.00;;;12.90;95.20;;;;;;5015322;28;20551;-88
2022/10/31 01:38:46;;;;;;;84.00;48.47;;;12.90;95.20;;;;;;5015169;28;20156;-89
2022/10/31 01:41:14;;;;;;;91.47;47.60;;;12.90;95.20;;;;;;5032714;28;20189;-88
2022/10/31 01:43:52;;;;;;;86.23;46.03;;;12.90;95.30;;;;;;5014955;28;20604;-88
2022/10/31 01:46:32;;;;;;;86.47;46.33;;;12.90;95.40;;;;;;5032737;28;20160;-88
2022/10/31 01:49:03;;;;;;;91.60;49.30;;;13.00;95.40;;;;;;5016976;28;20207;-89
2022/10/31 01:51:34;;;;;;;86.70;48.23;;;13.00;95.40;;;;;;5018577;28;20197;-89
2022/10/31 01:54:04;;;;;;;82.47;46.33;;;13.00;95.40;;;;;;5036335;28;20254;-88
2022/10/31 01:56:31;;;;;;;104.40;50.20;;;13.10;95.40;;;;;;5018556;28;20290;-88
2022/10/31 01:58:59;;;;;;;75.37;47.13;;;13.10;95.50;;;;;;5036497;28;20651;-88
2022/10/31 02:01:25;;;;;;;101.10;49.30;;;13.10;95.50;;;;;;5018580;28;20619;-88
2022/10/31 02:03:51;;;;;;;75.77;47.30;;;13.20;95.50;;;;;;5035945;28;20173;-88
2022/10/31 02:06:30;;;;;;;85.27;49.03;;;13.10;95.50;;;;;;5018363;28;20267;-88
2022/10/31 02:08:59;;;;;;;81.87;46.90;;;13.00;95.40;;;;;;5018449;28;20196;-88
2022/10/31 02:11:25;;;;;;;81.93;48.27;;;12.90;95.40;;;;;;5035888;28;20188;-88
2022/10/31 02:13:51;;;;;;;80.43;45.33;;;12.80;95.40;;;;;;5035802;28;20200;-88
2022/10/31 02:16:16;;;;;;;73.70;43.77;;;12.80;95.40;;;;;;5018188;28;20180;-88
2022/10/31 02:18:42;;;;;;;88.70;44.83;;;12.70;95.50;;;;;;5018176;28;20200;-88
2022/10/31 02:21:25;;;;;;;69.57;42.17;;;12.70;95.40;;;;;;5018056;28;20197;-88
2022/10/31 02:24:12;;;;;;;67.57;41.63;;;12.70;95.50;;;;;;5018279;28;20222;-88
2022/10/31 02:27:26;;;;;;;72.63;43.20;;;12.70;95.50;;;;;;5018194;28;20172;-88
2022/10/31 02:30:17;;;;;;;75.80;42.50;;;12.70;95.50;;;;;;4965097;28;20210;-88
2022/10/31 02:33:04;;;;;;;73.33;42.27;;;12.70;95.50;;;;;;5017693;28;20318;-88
2022/10/31 02:35:43;;;;;;;71.23;41.33;;;12.60;95.50;;;;;;5035458;28;20164;-89
2022/10/31 02:38:38;;;;;;;70.43;41.97;;;12.70;95.50;;;;;;5017679;28;20168;-88
2022/10/31 02:41:19;;;;;;;66.03;41.63;;;12.70;95.50;;;;;;5018420;28;20226;-88
2022/10/31 02:43:50;;;;;;;67.47;39.53;;;12.60;95.50;;;;;;5017915;28;20712;-88
2022/10/31 02:46:26;;;;;;;78.10;40.60;;;12.60;95.50;;;;;;5017952;28;20627;-88
2022/10/31 02:48:56;;;;;;;62.47;38.33;;;12.60;95.50;;;;;;5017772;28;20613;-89
2022/10/31 02:51:22;;;;;;;74.63;40.80;;;12.50;95.50;;;;;;5017412;28;20287;-88
2022/10/31 02:53:47;;;;;;;77.13;42.43;;;12.50;95.50;;;;;;5017617;28;20402;-89
2022/10/31 02:56:16;;;;;;;78.27;43.67;;;12.50;95.60;;;;;;5035144;28;20181;-88
2022/10/31 02:58:50;;;;;;;86.40;45.10;;;12.60;95.60;;;;;;5017299;28;20177;-88
2022/10/31 03:01:30;;;;;;;82.07;45.00;;;12.60;95.60;;;;;;5034041;28;20196;-89
2022/10/31 03:04:11;;;;;;;85.20;44.67;;;12.60;95.60;;;;;;5018350;28;20171;-88
2022/10/31 03:07:06;;;;;;;89.07;41.73;;;12.60;95.60;;;;;;5017137;28;20161;-88
2022/10/31 03:09:35;;;;;;;81.53;45.47;;;12.60;95.70;;;;;;5010478;28;20276;-88
2022/10/31 03:12:26;;;;;;;82.13;43.87;;;12.70;95.70;;;;;;5017209;28;20558;-89
2022/10/31 03:15:26;;;;;;;79.97;43.47;;;12.60;95.70;;;;;;5017164;28;20555;-88
2022/10/31 03:18:12;;;;;;;79.83;42.97;;;12.60;95.70;;;;;;5017008;28;20168;-88
2022/10/31 03:20:44;;;;;;;76.13;45.10;;;12.60;95.70;;;;;;5017842;28;20167;-88
2022/10/31 03:23:14;;;;;;;85.50;45.97;;;12.60;95.70;;;;;;5017671;28;20212;-89
2022/10/31 03:25:42;;;;;;;76.43;44.93;;;12.60;95.70;;;;;;5017738;28;20165;-88
2022/10/31 03:28:09;;;;;;;93.30;48.07;;;12.70;95.70;;;;;;5016775;28;20189;-88
2022/10/31 03:30:38;;;;;;;97.23;50.67;;;12.70;95.80;;;;;;5016859;28;20610;-88
2022/10/31 03:33:09;;;;;;;91.60;48.93;;;12.70;95.80;;;;;;5016534;28;20275;-89
2022/10/31 03:35:36;;;;;;;90.07;48.17;;;12.70;95.80;;;;;;5034500;28;20157;-88
2022/10/31 03:38:03;;;;;;;93.30;49.33;;;12.70;95.80;;;;;;5016782;28;20208;-88
2022/10/31 03:40:30;;;;;;;96.27;51.90;;;12.70;95.80;;;;;;5017330;28;20169;-88
2022/10/31 03:43:03;;;;;;;93.17;51.07;;;12.60;95.80;;;;;;5016457;28;20196;-88
2022/10/31 03:45:30;;;;;;;96.80;51.13;;;12.60;95.80;;;;;;5016639;28;20518;-88
2022/10/31 03:47:58;;;;;;;87.60;51.00;;;12.60;95.80;;;;;;5016596;28;20183;-89
2022/10/31 03:50:30;;;;;;;96.30;49.90;;;12.60;95.90;;;;;;5016793;28;20552;-88
2022/10/31 03:53:04;;;;;;;100.60;50.83;;;12.50;95.80;;;;;;5016316;28;20227;-88
2022/10/31 03:55:38;;;;;;;93.30;49.77;;;12.50;95.80;;;;;;5016715;28;20250;-88
2022/10/31 03:58:08;;;;;;;98.43;50.17;;;12.40;95.80;;;;;;5033900;28;20658;-88
2022/10/31 04:00:38;;;;;;;95.70;48.73;;;12.40;95.90;;;;;;5016337;28;20168;-88
2022/10/31 04:03:12;;;;;;;105.80;51.43;;;12.40;95.90;;;;;;5016424;28;20201;-88
2022/10/31 04:05:40;;;;;;;95.50;51.97;;;12.40;95.90;;;;;;5016189;28;20602;-89
2022/10/31 04:08:11;;;;;;;100.13;52.00;;;12.50;96.00;;;;;;5016158;28;20177;-88
2022/10/31 04:10:38;;;;;;;93.30;49.80;;;12.40;95.90;;;;;;5016886;28;20165;-88
2022/10/31 04:13:08;;;;;;;94.90;52.20;;;12.40;95.90;;;;;;5015829;28;20712;-88
2022/10/31 04:15:36;;;;;;;104.67;54.33;;;12.40;96.00;;;;;;5016118;28;20352;-88
2022/10/31 04:18:04;;;;;;;122.23;54.30;;;12.30;96.00;;;;;;5034008;28;20164;-88
2022/10/31 04:20:36;;;;;;;118.07;50.87;;;12.30;96.00;;;;;;5016078;28;20586;-88
2022/10/31 04:23:02;;;;;;;122.27;53.10;;;12.30;96.00;;;;;;5016862;28;20203;-88
2022/10/31 04:25:28;;;;;;;128.13;53.73;;;12.30;96.00;;;;;;5033903;28;20173;-88
2022/10/31 04:27:54;;;;;;;148.40;54.13;;;12.30;96.00;;;;;;5015794;28;20189;-88
2022/10/31 04:30:19;;;;;;;154.40;53.70;;;12.30;96.10;;;;;;5015841;28;20176;-88
2022/10/31 04:32:45;;;;;;;173.60;55.57;;;12.40;96.10;;;;;;5015644;28;20197;-88
2022/10/31 04:35:11;;;;;;;165.17;54.70;;;12.40;96.10;;;;;;5015737;28;20176;-88
2022/10/31 04:37:36;;;;;;;135.10;54.70;;;12.40;96.20;;;;;;5015734;28;20643;-88
2022/10/31 04:40:03;;;;;;;140.77;52.90;;;12.40;96.20;;;;;;5015801;28;20184;-88
2022/10/31 04:42:32;;;;;;;171.70;54.17;;;12.40;96.20;;;;;;5015719;28;20196;-88
2022/10/31 04:44:57;;;;;;;268.97;60.03;;;12.50;96.20;;;;;;5016137;28;20188;-89
2022/10/31 04:47:23;;;;;;;144.17;51.97;;;12.40;96.20;;;;;;5015607;28;20187;-88
2022/10/31 04:49:48;;;;;;;275.50;57.20;;;12.40;96.20;;;;;;5015664;28;20202;-88
2022/10/31 04:52:14;;;;;;;220.37;54.53;;;12.40;96.20;;;;;;5015578;28;20708;-88
2022/10/31 04:54:39;;;;;;;283.77;56.10;;;12.40;96.30;;;;;;5015477;28;20593;-88
2022/10/31 04:57:05;;;;;;;336.27;55.23;;;12.40;96.30;;;;;;5016061;28;20235;-89
2022/10/31 04:59:30;;;;;;;299.53;58.07;;;12.40;96.30;;;;;;5033519;28;20181;-88
2022/10/31 05:01:56;;;;;;;196.30;52.30;;;12.40;96.30;;;;;;5015470;28;20206;-88
2022/10/31 05:04:21;;;;;;;167.73;51.40;;;12.30;96.30;;;;;;5015696;28;20230;-89
2022/10/31 05:06:47;;;;;;;298.40;54.87;;;12.40;96.30;;;;;;5015472;28;20172;-88
2022/10/31 05:09:12;;;;;;;201.47;52.70;;;12.30;96.30;;;;;;5033382;28;20177;-88
2022/10/31 05:11:38;;;;;;;238.80;51.57;;;12.30;96.30;;;;;;5015494;28;20261;-88
2022/10/31 05:14:03;;;;;;;213.93;51.87;;;12.30;96.30;;;;;;5015392;28;20557;-88
2022/10/31 05:16:29;;;;;;;231.50;54.07;;;12.30;96.40;;;;;;5015282;28;20181;-88
2022/10/31 05:18:54;;;;;;;252.37;54.47;;;12.30;96.40;;;;;;5032988;28;20172;-89
2022/10/31 05:21:20;;;;;;;251.60;54.07;;;12.30;96.40;;;;;;5015249;28;20207;-89
2022/10/31 05:23:46;;;;;;;168.97;51.90;;;12.30;96.40;;;;;;5017026;28;20207;-88
2022/10/31 05:26:11;;;;;;;178.87;52.27;;;12.30;96.40;;;;;;5036878;28;20183;-88
2022/10/31 05:28:37;;;;;;;141.30;49.50;;;12.30;96.40;;;;;;5019298;28;20196;-88
2022/10/31 05:31:02;;;;;;;85.23;48.07;;;12.30;96.40;;;;;;5018869;28;20184;-88
2022/10/31 05:33:28;;;;;;;101.20;45.90;;;12.30;96.50;;;;;;5018851;28;20204;-88
2022/10/31 05:35:54;;;;;;;263.00;51.83;;;12.40;96.50;;;;;;5019042;28;20239;-88
2022/10/31 05:38:19;;;;;;;94.67;45.70;;;12.30;96.40;;;;;;5018968;28;20173;-89
2022/10/31 05:40:45;;;;;;;98.73;47.50;;;12.30;96.50;;;;;;5018833;28;20639;-88
2022/10/31 05:43:10;;;;;;;75.40;44.90;;;12.30;96.50;;;;;;5018721;28;20698;-88
2022/10/31 05:45:36;;;;;;;238.43;52.00;;;12.40;96.50;;;;;;5019616;28;20169;-88
2022/10/31 05:48:02;;;;;;;107.13;50.90;;;12.30;96.50;;;;;;5018807;28;20669;-88
2022/10/31 05:50:30;;;;;;;263.73;56.83;;;12.40;96.50;;;;;;5018828;28;20192;-88
2022/10/31 05:53:01;;;;;;;221.87;57.00;;;12.40;96.50;;;;;;5019058;28;20201;-87
2022/10/31 05:55:28;;;;;;;174.17;53.57;;;12.40;96.50;;;;;;5018602;28;20315;-89
2022/10/31 05:57:54;;;;;;;230.20;55.40;;;12.40;96.60;;;;;;5018546;28;20185;-88
2022/10/31 06:00:20;;;;;;;153.13;54.67;;;12.40;96.60;;;;;;5036280;28;20180;-89
2022/10/31 06:02:46;;;;;;;153.90;55.37;;;12.50;96.60;;;;;;5018470;28;20569;-89
2022/10/31 06:05:12;;;;;;;152.17;52.80;;;12.40;96.60;;;;;;5018467;28;20177;-88
2022/10/31 06:07:38;;;;;;;136.90;53.97;;;12.30;96.60;;;;;;5018351;28;20295;-89
2022/10/31 06:10:05;;;;;;;162.87;55.30;;;12.30;96.60;;;;;;5018419;28;20197;-88
2022/10/31 06:12:31;;;;;;;148.10;52.47;;;12.30;96.60;;;;;;5018301;28;20197;-88
2022/10/31 06:14:57;;;;;;;140.50;54.23;;;12.20;96.60;;;;;;5018387;28;20261;-88
2022/10/31 06:17:22;;;;;;;134.57;52.07;;;12.20;96.70;;;;;;5018245;28;20181;-88
2022/10/31 06:19:48;;;;;;;121.23;48.40;;;12.20;96.70;;;;;;5018081;28;20183;-88
2022/10/31 06:22:13;;;;;;;113.83;51.00;;;12.10;96.70;;;;;;5018310;28;20205;-88
2022/10/31 06:24:39;;;;;;;116.10;50.90;;;12.10;96.70;;;;;;5018042;28;20322;-89
2022/10/31 06:27:05;;;;;;;136.40;51.10;;;12.10;96.70;;;;;;5018109;28;20661;-88
2022/10/31 06:29:31;;;;;;;137.00;51.90;;;12.10;96.70;;;;;;5035533;28;20220;-88
2022/10/31 06:31:57;;;;;;;158.53;53.93;;;12.10;96.70;;;;;;5018004;28;20204;-88
2022/10/31 06:34:22;;;;;;;179.63;55.23;;;12.10;96.70;;;;;;5017098;28;20211;-88
2022/10/31 06:36:48;;;;;;;140.83;54.10;;;12.10;96.70;;;;;;5017368;28;20172;-88
2022/10/31 06:39:14;;;;;;;145.90;56.27;;;12.20;96.80;;;;;;5017814;28;20185;-89
2022/10/31 06:41:41;;;;;;;177.50;58.63;;;12.20;96.80;;;;;;5017702;28;20571;-89
2022/10/31 06:44:07;;;;;;;199.27;59.10;;;12.20;96.70;;;;;;5017929;28;20547;-89
2022/10/31 06:46:33;;;;;;;216.03;58.63;;;12.10;96.80;;;;;;5017706;28;20180;-89
2022/10/31 06:48:59;;;;;;;157.00;58.77;;;12.10;96.70;;;;;;5035308;28;20708;-89
2022/10/31 06:51:25;;;;;;;161.53;59.77;;;12.10;96.80;;;;;;5017571;28;20200;-88
2022/10/31 06:53:50;;;;;;;171.50;58.20;;;12.20;96.80;;;;;;5035187;28;20228;-88
2022/10/31 06:56:16;;;;;;;191.97;56.07;;;12.20;96.80;;;;;;5035057;28;20168;-88
2022/10/31 06:58:41;;;;;;;233.43;59.87;;;12.20;96.80;;;;;;5017406;28;20261;-88
2022/10/31 07:01:07;;;;;;;188.17;59.00;;;12.20;96.80;;;;;;5017599;28;20692;-88
2022/10/31 07:03:32;;;;;;;180.63;54.97;;;12.20;96.80;;;;;;5035187;28;20183;-89
2022/10/31 07:05:58;;;;;;;144.40;53.53;;;12.20;96.80;;;;;;5017381;28;20187;-89
2022/10/31 07:08:24;;;;;;;185.20;52.97;;;12.20;96.90;;;;;;5017350;28;20271;-89
2022/10/31 07:10:55;;;;;;;138.80;49.30;;;12.20;96.80;;;;;;5017076;28;20176;-88
2022/10/31 07:13:25;;;;;;;137.17;47.90;;;12.10;96.80;;;;;;5017269;28;20211;-88
2022/10/31 07:15:54;;;;;;;175.90;47.13;;;12.10;96.80;;;;;;5017552;28;20176;-88
2022/10/31 07:18:21;;;;;;;191.27;47.33;;;12.10;96.80;;;;;;5017138;28;20647;-88
2022/10/31 07:20:47;;;;;;;134.40;45.23;;;11.90;96.80;;;;;;5017580;28;20181;-88
2022/10/31 07:23:13;;;;;;;200.57;48.80;;;12.00;96.80;;;;;;5034779;28;20247;-88
2022/10/31 07:25:41;;;;;;;172.80;45.87;;;11.90;96.80;;;;;;5035020;28;20177;-88
2022/10/31 07:28:07;;;;;;;124.77;45.47;;;11.90;96.80;;;;;;5034376;28;20196;-88
2022/10/31 07:30:33;;;;;;;177.10;45.73;;;12.00;96.90;;;;;;5017023;28;20187;-88
2022/10/31 07:32:58;;;;;;;149.70;47.93;;;11.90;96.80;;;;;;5016763;28;20196;-88
2022/10/31 07:35:26;;;;;;;245.83;49.60;;;12.00;96.90;;;;;;5016790;28;20231;-88
2022/10/31 07:37:52;;;;;;;238.67;50.13;;;12.00;96.90;;;;;;5016744;28;20208;-88
2022/10/31 07:40:18;;;;;;;221.77;50.80;;;12.00;96.90;;;;;;5016728;28;20180;-88
2022/10/31 07:42:46;;;;;;;335.60;51.30;;;12.00;96.90;;;;;;5016415;28;20245;-88
2022/10/31 07:45:18;;;;;;;199.47;46.40;;;12.10;96.90;;;;;;5016526;28;20185;-88
2022/10/31 07:47:52;;;;;;;219.07;45.00;;;12.00;96.90;;;;;;5016203;28;20275;-88
2022/10/31 07:50:27;;;;;;;224.17;45.47;;;12.00;96.90;;;;;;5016358;28;20652;-88
2022/10/31 07:53:05;;;;;;;182.13;46.03;;;12.00;96.90;;;;;;5016354;28;20749;-88
2022/10/31 07:55:31;;;;;;;178.37;44.00;;;12.00;96.90;;;;;;5016345;28;20186;-87
2022/10/31 07:58:04;;;;;;;216.57;48.37;;;12.00;96.90;;;;;;5016816;28;20176;-88
2022/10/31 08:00:31;;;;;;;215.40;51.90;;;12.00;96.90;;;;;;5034202;28;20160;-88
2022/10/31 08:03:03;;;;;;;200.50;50.63;;;12.00;97.00;;;;;;5016201;28;20196;-88
2022/10/31 08:05:29;;;;;;;139.67;50.03;;;12.10;97.00;;;;;;5033872;28;20173;-88
2022/10/31 08:07:54;;;;;;;143.43;51.07;;;12.20;97.00;;;;;;5016085;28;20207;-88
2022/10/31 08:10:21;;;;;;;148.27;48.43;;;12.30;97.00;;;;;;5033714;28;20709;-88
2022/10/31 08:12:46;;;;;;;255.93;49.50;;;12.20;97.00;;;;;;5033765;28;20245;-88
2022/10/31 08:15:12;;;;;;;82.07;42.53;;;12.30;97.00;;;;;;5016023;28;20212;-88
2022/10/31 08:17:38;;;;;;;181.67;44.07;;;12.30;96.90;;;;;;5015974;28;20242;-88
2022/10/31 08:20:05;;;;;;;230.30;44.13;;;12.30;97.00;;;;;;5016525;28;20181;-88
2022/10/31 08:22:31;;;;;;;243.97;42.97;;;12.30;96.90;;;;;;5033662;28;20242;-88
2022/10/31 08:24:57;;;;;;;245.37;45.10;;;12.10;96.90;;;;;;5015975;28;20681;-87
2022/10/31 08:27:22;;;;;;;259.43;46.23;;;12.00;96.90;;;;;;5033411;28;20721;-88
2022/10/31 08:29:48;;;;;;;183.90;45.50;;;12.10;97.00;;;;;;5033531;28;20282;-87
2022/10/31 08:32:14;;;;;;;196.03;46.03;;;12.20;97.00;;;;;;5015748;28;20200;-88
2022/10/31 08:34:39;;;;;;;154.33;45.23;;;12.20;97.00;;;;;;5015773;28;20674;-88
2022/10/31 08:37:05;;;;;;;125.27;40.10;;;12.20;97.00;;;;;;5015842;28;20180;-88
2022/10/31 08:39:30;;;;;;;117.50;40.20;;;12.30;97.00;;;;;;5015853;28;20172;-88
2022/10/31 08:41:56;;;;;;;94.63;39.73;;;12.20;97.00;;;;;;5015785;28;20234;-89
2022/10/31 08:44:21;;;;;;;140.27;44.97;;;12.20;97.00;;;;;;5015718;28;20215;-88
2022/10/31 08:46:47;;;;;;;126.27;42.50;;;12.20;97.00;;;;;;5015767;28;20220;-88
2022/10/31 08:49:12;;;;;;;77.00;43.10;;;12.20;97.00;;;;;;5015841;28;20184;-88
2022/10/31 08:51:38;;;;;;;96.53;42.57;;;12.20;97.00;;;;;;5015630;28;20200;-88
2022/10/31 08:54:03;;;;;;;115.23;43.83;;;12.30;97.00;;;;;;5015488;28;20221;-88
2022/10/31 08:56:29;;;;;;;102.00;41.60;;;12.30;97.00;;;;;;5015585;28;20263;-88
2022/10/31 08:58:55;;;;;;;95.90;42.43;;;12.30;97.00;;;;;;5017457;28;20177;-88
2022/10/31 09:01:20;;;;;;;112.57;42.57;;;12.30;97.00;;;;;;5037218;28;20192;-88
2022/10/31 09:03:46;;;;;;;78.33;41.93;;;12.30;97.00;;;;;;5019688;28;20188;-88
2022/10/31 09:06:11;;;;;;;73.27;41.60;;;12.40;97.00;;;;;;5019553;28;20184;-88
2022/10/31 09:08:37;;;;;;;135.37;41.83;;;12.50;97.00;;;;;;5019492;28;20526;-88
2022/10/31 09:11:03;;;;;;;58.57;38.33;;;12.50;97.00;;;;;;5019314;28;20180;-88
2022/10/31 09:13:29;;;;;;;93.30;38.13;;;12.60;97.10;;;;;;5019247;28;20710;-88
2022/10/31 09:15:56;;;;;;;83.07;38.17;;;12.50;97.00;;;;;;5019308;28;20188;-88
2022/10/31 09:18:23;;;;;;;82.67;37.67;;;12.60;97.00;;;;;;5019159;28;20207;-88
2022/10/31 09:20:49;;;;;;;109.53;36.63;;;12.60;97.00;;;;;;5019200;28;20173;-88
2022/10/31 09:23:18;;;;;;;82.37;34.27;;;12.80;97.00;;;;;;5019095;28;20189;-88
2022/10/31 09:25:44;;;;;;;65.27;32.30;;;12.70;97.00;;;;;;5019134;28;20176;-88
2022/10/31 09:28:12;;;;;;;60.53;32.87;;;12.80;97.00;;;;;;5036955;28;20198;-88
2022/10/31 09:30:38;;;;;;;47.63;33.70;;;12.80;97.00;;;;;;5036746;28;20165;-88
2022/10/31 09:33:06;;;;;;;66.17;33.53;;;12.80;97.00;;;;;;5036447;28;20682;-87
2022/10/31 09:35:32;;;;;;;41.67;31.10;;;12.90;97.10;;;;;;5018861;28;20173;-88
2022/10/31 09:38:05;;;;;;;110.93;33.87;;;13.00;97.10;;;;;;5018830;28;20242;-88
2022/10/31 09:40:41;;;;;;;76.50;31.63;;;13.10;97.10;;;;;;5019049;28;20256;-88
2022/10/31 09:43:34;;;;;;;67.63;30.93;;;13.00;97.00;;;;;;5018846;28;20196;-88
2022/10/31 09:46:26;;;;;;;58.17;31.43;;;13.00;97.00;;;;;;5018911;28;20554;-87
2022/10/31 09:49:33;;;;;;;106.93;33.57;;;13.00;97.00;;;;;;5018920;28;20200;-89
2022/10/31 09:52:18;;;;;;;72.40;29.73;;;13.00;97.00;;;;;;5018804;28;20572;-88
2022/10/31 09:54:46;;;;;;;123.03;30.57;;;13.00;97.00;;;;;;5036463;28;20216;-88
2022/10/31 09:57:17;;;;;;;77.37;28.13;;;12.90;96.90;;;;;;5018747;28;20266;-89
2022/10/31 09:59:46;;;;;;;41.93;28.17;;;12.90;96.90;;;;;;5018806;28;20176;-90
2022/10/31 10:02:25;;;;;;;89.33;30.93;;;12.90;96.90;;;;;;5018758;28;20667;-89
2022/10/31 10:05:01;;;;;;;45.23;27.20;;;12.80;96.90;;;;;;5018421;28;20169;-89
2022/10/31 10:07:44;;;;;;;52.70;28.60;;;12.90;96.90;;;;;;5018496;28;20642;-90
2022/10/31 10:10:24;;;;;;;43.40;27.17;;;12.90;96.90;;;;;;5018226;28;20180;-89
2022/10/31 10:13:12;;;;;;;47.00;29.37;;;12.90;96.90;;;;;;5018471;28;20204;-90
2022/10/31 10:16:21;;;;;;;53.93;30.13;;;13.00;96.90;;;;;;5018768;28;20651;-89
2022/10/31 10:19:22;;;;;;;39.33;29.33;;;13.10;96.90;;;;;;5021901;28;20658;-88
2022/10/31 10:22:12;;;;;;;44.20;29.77;;;13.00;96.80;;;;;;5018012;28;20208;-88
2022/10/31 10:25:07;;;;;;;45.60;32.30;;;13.00;96.80;;;;;;5018071;28;20185;-89
2022/10/31 10:28:00;;;;;;;47.87;32.37;;;13.10;96.90;;;;;;5007656;28;20200;-89
2022/10/31 10:30:50;;;;;;;43.40;30.90;;;12.90;96.80;;;;;;5018880;28;20177;-89
2022/10/31 10:33:22;;;;;;;57.67;32.63;;;12.90;96.80;;;;;;5017815;28;20177;-89
2022/10/31 10:35:56;;;;;;;59.83;33.53;;;12.90;96.80;;;;;;5018010;28;20169;-89
2022/10/31 10:38:31;;;;;;;51.93;34.13;;;13.10;96.80;;;;;;5017837;28;20168;-89
2022/10/31 10:41:00;;;;;;;53.43;33.13;;;13.10;96.80;;;;;;5018578;28;20179;-89
2022/10/31 10:43:36;;;;;;;48.03;31.37;;;13.20;96.80;;;;;;5017573;28;20188;-89
2022/10/31 10:49:19;;;;;;;56.87;31.00;;;13.20;96.70;;;;;;5036479;28;20219;-89
2022/10/31 10:51:45;;;;;;;52.50;33.40;;;13.30;96.70;;;;;;5018086;28;20580;-88
2022/10/31 10:54:36;;;;;;;44.73;31.30;;;13.30;96.70;;;;;;5017614;28;20200;-89
2022/10/31 10:57:27;;;;;;;51.53;31.27;;;13.40;96.70;;;;;;5035321;28;20176;-89
2022/10/31 10:59:53;;;;;;;49.47;31.10;;;13.40;96.70;;;;;;5018092;28;20520;-88
2022/10/31 11:02:22;;;;;;;48.97;32.33;;;13.50;96.70;;;;;;5017471;28;20312;-89
2022/10/31 11:04:52;;;;;;;56.10;32.57;;;13.50;96.60;;;;;;5017405;28;20185;-88
2022/10/31 11:07:18;;;;;;;50.90;31.43;;;13.60;96.70;;;;;;5017815;28;20177;-89
2022/10/31 11:09:44;;;;;;;44.07;29.70;;;13.50;96.60;;;;;;5017301;28;20705;-88
2022/10/31 11:12:29;;;;;;;59.03;37.83;;;13.50;96.60;;;;;;5017635;28;20254;-88
2022/10/31 11:15:03;;;;;;;65.07;39.57;;;13.60;96.60;;;;;;5017830;28;20682;-88
2022/10/31 11:17:54;;;;;;;64.07;40.33;;;13.70;96.60;;;;;;5017686;28;20176;-89
2022/10/31 11:20:19;;;;;;;69.72;41.53;;;13.70;96.50;;;;;;5017628;28;20173;-88
2022/10/31 11:22:48;;;;;;;63.17;36.45;;;13.80;96.60;;;;;;5016463;28;20196;-89
2022/10/31 11:25:22;;;;;;;51.47;32.53;;;13.80;96.50;;;;;;5016843;28;20196;-88
2022/10/31 11:28:08;;;;;;;43.65;27.83;;;13.80;96.50;;;;;;5016642;28;20673;-88
2022/10/31 11:30:56;;;;;;;39.47;28.77;;;13.90;96.50;;;;;;5017047;28;20187;-88
2022/10/31 11:33:28;;;;;;;43.17;28.77;;;13.90;96.40;;;;;;5034855;28;20192;-88
2022/10/31 11:36:13;;;;;;;38.45;25.55;;;14.00;96.40;;;;;;5016718;28;20670;-88
2022/10/31 11:38:43;;;;;;;31.33;23.70;;;14.00;96.40;;;;;;5016985;28;20165;-89
2022/10/31 11:41:28;;;;;;;36.25;24.30;;;14.00;96.30;;;;;;5016951;28;20287;-88
2022/10/31 11:44:03;;;;;;;31.05;22.02;;;14.00;96.30;;;;;;5016739;28;20180;-88
2022/10/31 11:46:40;;;;;;;35.88;21.98;;;14.00;96.20;;;;;;5016765;28;20259;-88
2022/10/31 11:49:28;;;;;;;26.08;10.88;;;14.00;96.20;;;;;;5017724;28;20176;-88
2022/10/31 11:51:56;;;;;;;21.02;8.52;;;14.00;96.10;;;;;;5016585;28;20207;-88
2022/10/31 11:54:26;;;;;;;15.77;7.53;;;14.00;95.90;;;;;;5034543;28;20208;-88
2022/10/31 11:56:52;;;;;;;13.32;7.45;;;13.90;95.80;;;;;;5016598;28;20215;-89
2022/10/31 11:59:29;;;;;;;15.45;6.88;;;13.90;95.60;;;;;;5017318;28;20169;-88
2022/10/31 12:02:00;;;;;;;20.23;7.53;;;13.90;95.40;;;;;;5016429;28;20228;-88
2022/10/31 12:04:39;;;;;;;13.70;7.32;;;14.00;95.20;;;;;;5016744;28;20260;-88
2022/10/31 12:07:04;;;;;;;13.77;7.43;;;14.00;94.80;;;;;;5017079;28;20543;-88
2022/10/31 12:09:34;;;;;;;12.30;7.00;;;14.00;94.40;;;;;;5034276;28;20196;-88
2022/10/31 12:12:27;;;;;;;13.45;8.50;;;13.90;93.80;;;;;;5016666;28;20196;-89
2022/10/31 12:15:03;;;;;;;19.30;8.18;;;14.00;93.60;;;;;;5017233;28;20204;-88
2022/10/31 12:17:47;;;;;;;20.07;8.80;;;14.00;93.30;;;;;;5017589;28;20215;-89
2022/10/31 12:20:47;;;;;;;25.37;12.40;;;14.10;93.10;;;;;;5017159;28;20192;-88
2022/10/31 12:23:41;;;;;;;18.13;10.18;;;14.20;92.90;;;;;;5017275;28;20192;-89
2022/10/31 12:26:18;;;;;;;13.52;8.68;;;14.20;92.50;;;;;;5016457;28;20226;-88
2022/10/31 12:29:06;;;;;;;17.73;11.05;;;14.20;92.30;;;;;;5033718;28;20188;-89
2022/10/31 12:32:03;;;;;;;19.83;12.15;;;14.20;92.10;;;;;;5016540;28;20201;-88
2022/10/31 12:34:52;;;;;;;21.23;10.50;;;14.20;92.10;;;;;;5016458;28;20549;-88
2022/10/31 12:37:48;;;;;;;24.30;14.32;;;14.30;92.20;;;;;;5016017;28;20266;-88
2022/10/31 12:40:43;;;;;;;22.33;14.75;;;14.20;91.90;;;;;;5015523;28;20360;-88
2022/10/31 12:43:34;;;;;;;17.38;11.55;;;14.30;92.20;;;;;;4987574;28;20215;-88
2022/10/31 12:46:01;;;;;;;22.27;14.38;;;14.30;92.20;;;;;;5033136;28;20172;-88